Mohave Valley, AZ

12:15 PM MST on October 25, 2014 (GMT -0700)
Mesquite Creek | Change Station
CLOSE
Current Station
Personal Weather Station
Location: Mohave Valley, AZ
Elevation: 581 ft
Nearby Weather Stations

Elev 581 ft 34.97 °N, 114.57 °W | Updated 11 minutes ago

Clear
Clear
91.0 °F
Feels Like 88 °F
N
2.7
Wind Variable Wind from SSE

Today
High -- | Low -- °F
--% Chance of Precip.
Yesterday
High -- | Low -- °F
Precip. -- in
6:52 AM 5:51 PM
Waxing Crescent, 4% visible
Pressure 29.92 in
Visibility 10.0 miles
Clouds Clear
Heat Index 88 °F
Dew Point 49 °F
Humidity 24%
Rainfall 0.00 in
Snow Depth Not available.
UV 6 out of 12
Pollen 5.00 out of 12
Air Quality Not available.
Flu Activity No Activity
METAR KEED 251856Z AUTO VRB03KT 10SM CLR 31/06 A3000 RMK AO2 SLP131 T03110056

More Conditions Fewer Conditions

Pressure 29.92 in
Visibility 10.0 miles
Clouds Clear
Heat Index 88 °F
Dew Point 49 °F
Humidity 24%
Rainfall 0.00 in
Snow Depth Not available.
UV 6 out of 12
Pollen 5.00 out of 12
Air Quality Not available.
Flu Activity No Activity
METAR KEED 251856Z AUTO VRB03KT 10SM CLR 31/06 A3000 RMK AO2 SLP131 T03110056

More Conditions Fewer Conditions

10-Day Weather Forecast

Almanac

Astronomy

Oct. 25, 2014 Rise Set
Actual Time 6:52 AM MST 5:51 PM MST
Civil Twilight 6:26 AM MST 6:17 PM MST
Nautical Twilight 5:57 AM MST 6:46 PM MST
Astronomical Twilight 5:27 AM MST 7:15 PM MST
Moon 8:32 AM MST 7:20 PM MST
Length of Visible Light 11h 50m
Length of Day
10h 58m
Tomorrow will be 2m 0s shorter.
Waxing Crescent, 4% of the Moon is Illuminated
Today
Waxing Crescent
Oct 30
First Quarter
Nov 6
Full
Nov 14
Last Quarter
Nov 22
New

Today's Extremes

State Highs State Lows

Community

WunderPhotos

Upload Photos

1,764,965 photos uploaded!

Nearby

Snow Depth

Station Depth Elevation
White Horse Lake 0 in 7180 ft
Snowslide Canyon 0 in 9730 ft
Baker Butte 0 in 7300 ft
Baldy 0 in 9125 ft
Wildcat 0 in 7850 ft

Earthquake Activity

City Distance Mag. Time & Date
No recent earthquake activity has been reported nearby.
Minimum magnitude displayed is 2.5.

Coastal Water Temperatures

Place Temperature
No Stations Reporting

Nearby Weather Stations